createdAt,value
2017-03-27T00:00:24.208Z,0
2017-03-27T00:01:04.624Z,0
2017-03-27T00:01:45.128Z,0
2017-03-27T00:02:25.641Z,0
2017-03-27T00:03:06.116Z,0
2017-03-27T00:03:46.643Z,0
2017-03-27T00:04:27.053Z,0
2017-03-27T00:05:07.586Z,0
2017-03-27T00:05:48.070Z,0
2017-03-27T00:06:28.543Z,0
2017-03-27T00:07:09.129Z,0
2017-03-27T00:07:49.607Z,0
2017-03-27T00:08:30.098Z,0
2017-03-27T00:09:10.669Z,0
2017-03-27T00:09:51.091Z,0
2017-03-27T00:10:31.595Z,0
2017-03-27T00:11:12.109Z,0
2017-03-27T00:11:52.591Z,0
2017-03-27T00:12:33.068Z,0
2017-03-27T00:13:13.708Z,0
2017-03-27T00:13:54.316Z,0
2017-03-27T00:14:34.836Z,0
2017-03-27T00:15:15.512Z,0
2017-03-27T00:15:56.013Z,0
2017-03-27T00:16:36.506Z,0
2017-03-27T00:17:17.181Z,0
2017-03-27T00:17:57.614Z,0
2017-03-27T00:18:38.114Z,0
2017-03-27T00:19:18.571Z,0
2017-03-27T00:19:59.043Z,0
2017-03-27T00:20:39.495Z,0
2017-03-27T00:21:19.982Z,0
2017-03-27T00:22:00.484Z,0
2017-03-27T00:22:41.027Z,0
2017-03-27T00:23:21.472Z,0
2017-03-27T00:24:02.017Z,0
2017-03-27T00:24:42.481Z,0
2017-03-27T00:25:22.969Z,0
2017-03-27T00:26:03.577Z,0
2017-03-27T00:26:44.211Z,0
2017-03-27T00:27:24.658Z,0
2017-03-27T00:28:05.244Z,0
2017-03-27T00:28:45.638Z,0
2017-03-27T00:29:26.147Z,0
2017-03-27T00:30:06.728Z,0
2017-03-27T00:30:47.238Z,0
2017-03-27T00:31:27.800Z,0
2017-03-27T00:32:08.340Z,0
2017-03-27T00:32:48.925Z,0
2017-03-27T00:33:29.454Z,0
2017-03-27T00:34:10.024Z,0
2017-03-27T00:34:50.502Z,0
2017-03-27T00:35:31.026Z,0
2017-03-27T00:36:11.548Z,0
2017-03-27T00:36:52.027Z,0
2017-03-27T00:37:32.508Z,0
2017-03-27T00:38:13.013Z,0
2017-03-27T00:38:53.512Z,0
2017-03-27T00:39:33.971Z,0
2017-03-27T00:40:14.547Z,0
2017-03-27T00:40:55.059Z,0
2017-03-27T00:41:35.520Z,0
2017-03-27T00:42:16.063Z,0
2017-03-27T00:42:56.502Z,0
2017-03-27T00:43:36.954Z,0
2017-03-27T00:44:17.474Z,0
2017-03-27T00:44:57.988Z,0
2017-03-27T00:45:38.493Z,0
2017-03-27T00:46:18.968Z,0
2017-03-27T00:46:59.561Z,0
2017-03-27T00:47:40.246Z,0
2017-03-27T00:48:20.731Z,0
2017-03-27T00:49:01.205Z,0
2017-03-27T00:49:41.648Z,0
2017-03-27T00:50:22.174Z,0
2017-03-27T00:51:02.697Z,0
2017-03-27T00:51:43.194Z,0
2017-03-27T00:52:23.689Z,0
2017-03-27T00:53:04.178Z,0
2017-03-27T00:53:44.671Z,0
2017-03-27T00:54:25.147Z,0
2017-03-27T00:55:05.628Z,0
2017-03-27T00:55:46.112Z,0
2017-03-27T00:56:26.532Z,0
2017-03-27T00:57:07.053Z,0
2017-03-27T00:57:47.572Z,0
2017-03-27T00:58:28.076Z,0
2017-03-27T00:59:08.581Z,0
2017-03-27T00:59:49.045Z,0
2017-03-27T01:00:29.530Z,0
2017-03-27T01:01:09.981Z,0
2017-03-27T01:01:50.590Z,0
2017-03-27T01:02:31.095Z,0
2017-03-27T01:03:11.593Z,0
2017-03-27T01:03:52.153Z,0
2017-03-27T01:04:32.633Z,0
2017-03-27T01:05:13.162Z,0
2017-03-27T01:05:53.683Z,0
2017-03-27T01:06:34.150Z,0
2017-03-27T01:07:14.595Z,0
2017-03-27T01:07:55.213Z,0
2017-03-27T01:08:35.670Z,0
2017-03-27T01:09:16.127Z,0
2017-03-27T01:09:56.632Z,0
2017-03-27T01:23:14.380Z,0
2017-03-27T01:24:02.380Z,0
2017-03-27T01:24:42.176Z,0
2017-03-27T01:25:22.679Z,0
2017-03-27T01:26:03.227Z,0
2017-03-27T01:26:43.706Z,0
2017-03-27T01:27:24.184Z,0
2017-03-27T01:28:04.663Z,0
2017-03-27T01:28:45.189Z,0
2017-03-27T01:29:25.659Z,0
2017-03-27T01:30:06.139Z,0
2017-03-27T01:30:46.626Z,0
2017-03-27T01:31:27.187Z,0
2017-03-27T01:32:07.843Z,0
2017-03-27T01:32:48.428Z,0
2017-03-27T01:33:28.875Z,0
2017-03-27T01:34:09.428Z,0
2017-03-27T01:34:49.876Z,0
2017-03-27T01:35:30.388Z,0
2017-03-27T01:36:10.882Z,0
2017-03-27T01:36:51.347Z,0
2017-03-27T01:37:31.836Z,0
2017-03-27T01:38:12.380Z,0
2017-03-27T01:38:52.992Z,0
2017-03-27T01:39:33.437Z,0
2017-03-27T01:40:13.926Z,0
2017-03-27T01:40:54.399Z,0
2017-03-27T01:41:34.906Z,0
2017-03-27T01:42:15.398Z,0
2017-03-27T01:42:55.923Z,0
2017-03-27T01:43:36.375Z,0
2017-03-27T01:44:16.868Z,0
2017-03-27T01:44:57.413Z,0
2017-03-27T01:45:37.849Z,0
2017-03-27T01:46:18.417Z,0
2017-03-27T01:46:58.845Z,0
2017-03-27T01:47:39.355Z,0
2017-03-27T01:48:19.927Z,0
2017-03-27T01:49:00.363Z,0
2017-03-27T01:49:40.827Z,0
2017-03-27T01:50:21.333Z,0
2017-03-27T01:51:01.799Z,0
2017-03-27T01:51:42.334Z,0
2017-03-27T01:52:22.816Z,0
2017-03-27T01:53:03.290Z,0
2017-03-27T01:53:43.830Z,0
2017-03-27T01:54:24.287Z,0
2017-03-27T01:55:04.775Z,0
2017-03-27T01:55:45.259Z,0
2017-03-27T01:56:25.752Z,0
2017-03-27T01:57:06.287Z,0
2017-03-27T01:57:46.864Z,0
2017-03-27T01:58:27.326Z,0
2017-03-27T01:59:07.769Z,0
2017-03-27T01:59:48.250Z,0
2017-03-27T02:00:28.737Z,0
2017-03-27T02:01:09.163Z,0
2017-03-27T02:01:49.677Z,0
2017-03-27T02:02:30.190Z,0
2017-03-27T02:03:10.640Z,0
2017-03-27T02:03:51.159Z,0
2017-03-27T02:04:31.743Z,0
2017-03-27T02:05:12.285Z,0
2017-03-27T02:05:52.764Z,0
2017-03-27T02:06:33.221Z,0
2017-03-27T02:07:13.742Z,0
2017-03-27T02:07:54.219Z,0
2017-03-27T02:08:34.668Z,0
2017-03-27T02:09:15.173Z,0
2017-03-27T02:09:55.650Z,0
2017-03-27T02:10:36.136Z,0
2017-03-27T02:11:16.639Z,0
2017-03-27T02:11:57.066Z,0
2017-03-27T02:12:37.583Z,0
2017-03-27T02:13:18.109Z,0
2017-03-27T02:13:58.545Z,0
2017-03-27T02:14:39.221Z,0
2017-03-27T02:15:19.681Z,0
2017-03-27T02:16:00.204Z,0
2017-03-27T02:16:40.710Z,0
2017-03-27T02:17:21.179Z,0
2017-03-27T02:18:01.658Z,0
2017-03-27T02:18:42.163Z,0
2017-03-27T02:19:22.591Z,0
2017-03-27T02:20:03.109Z,0
2017-03-27T02:20:43.593Z,0
2017-03-27T02:21:24.150Z,0
2017-03-27T02:22:04.562Z,0
2017-03-27T02:22:45.162Z,0
2017-03-27T02:23:25.626Z,0
2017-03-27T02:24:06.195Z,0
2017-03-27T02:24:46.750Z,0
2017-03-27T02:25:27.181Z,0
2017-03-27T02:26:07.667Z,0
2017-03-27T02:26:48.154Z,0
2017-03-27T02:27:28.643Z,0
2017-03-27T02:28:09.111Z,0
2017-03-27T02:28:49.578Z,0
2017-03-27T02:29:30.135Z,0
2017-03-27T02:30:10.607Z,0
2017-03-27T02:30:51.112Z,0
2017-03-27T02:31:31.660Z,0
2017-03-27T02:32:12.139Z,0
2017-03-27T02:32:52.620Z,0
2017-03-27T02:33:33.087Z,0
2017-03-27T02:34:13.661Z,0
2017-03-27T02:34:54.165Z,0
2017-03-27T02:35:34.602Z,0
2017-03-27T02:36:15.069Z,0
2017-03-27T02:36:55.577Z,0
2017-03-27T02:37:36.119Z,0
2017-03-27T02:38:16.619Z,0
2017-03-27T02:38:57.113Z,0
2017-03-27T02:39:37.706Z,0
2017-03-27T02:40:18.186Z,0
2017-03-27T02:40:58.615Z,0
2017-03-27T02:41:39.161Z,0
2017-03-27T02:42:19.622Z,0
2017-03-27T02:43:00.106Z,0
2017-03-27T02:43:40.637Z,0
2017-03-27T02:44:21.098Z,0
2017-03-27T02:45:01.621Z,0
2017-03-27T02:45:42.092Z,0
2017-03-27T02:46:22.549Z,0
2017-03-27T02:47:03.094Z,0
2017-03-27T02:47:43.598Z,0
2017-03-27T02:48:24.084Z,0
2017-03-27T02:49:04.578Z,0
2017-03-27T02:49:45.082Z,0
2017-03-27T02:50:25.582Z,0
2017-03-27T02:51:06.074Z,0
2017-03-27T02:51:46.546Z,0
2017-03-27T02:52:27.016Z,0
2017-03-27T02:53:07.519Z,0
2017-03-27T02:53:48.011Z,0
2017-03-27T02:54:28.496Z,0
2017-03-27T02:55:08.982Z,0
2017-03-27T02:55:49.442Z,0
2017-03-27T02:56:30.011Z,0
2017-03-27T02:57:10.497Z,0
2017-03-27T02:57:50.970Z,0
2017-03-27T02:58:31.451Z,0
2017-03-27T02:59:11.958Z,0
2017-03-27T02:59:52.439Z,0
2017-03-27T03:00:32.895Z,0
2017-03-27T03:01:13.359Z,0
2017-03-27T03:01:53.900Z,0
2017-03-27T03:02:34.335Z,0
2017-03-27T03:03:14.942Z,0
2017-03-27T03:03:55.394Z,0
2017-03-27T03:04:35.907Z,0
2017-03-27T03:05:16.403Z,0
2017-03-27T03:05:56.930Z,0
2017-03-27T03:06:37.466Z,0
2017-03-27T03:07:17.859Z,0
2017-03-27T03:07:58.346Z,0
2017-03-27T03:08:38.841Z,0
2017-03-27T03:09:19.425Z,0
2017-03-27T03:09:59.835Z,0
2017-03-27T03:10:40.284Z,0
2017-03-27T03:11:20.882Z,0
2017-03-27T03:12:01.341Z,0
2017-03-27T03:12:41.860Z,0
2017-03-27T03:13:22.334Z,0
2017-03-27T03:14:02.844Z,0
2017-03-27T03:14:43.307Z,0
2017-03-27T03:15:23.782Z,0
2017-03-27T03:16:04.298Z,0
2017-03-27T03:16:44.750Z,0
2017-03-27T03:17:25.499Z,0
2017-03-27T03:18:06.025Z,0
2017-03-27T03:18:46.521Z,0
2017-03-27T03:19:26.981Z,0
2017-03-27T03:20:07.509Z,0
2017-03-27T03:20:47.979Z,0
2017-03-27T03:21:28.509Z,0
2017-03-27T03:22:09.155Z,0
2017-03-27T03:22:49.719Z,0
2017-03-27T03:23:30.305Z,0
2017-03-27T03:24:10.650Z,0
2017-03-27T03:24:51.147Z,0
2017-03-27T03:25:31.655Z,0
2017-03-27T03:26:12.181Z,0
2017-03-27T03:26:52.677Z,0
2017-03-27T03:27:33.170Z,0
2017-03-27T03:28:13.638Z,0
2017-03-27T03:28:54.142Z,0
2017-03-27T03:29:34.668Z,0
2017-03-27T03:30:15.129Z,0
2017-03-27T03:30:55.644Z,0
2017-03-27T03:31:36.174Z,0
2017-03-27T03:32:16.730Z,0
2017-03-27T03:32:57.190Z,0
2017-03-27T03:33:37.703Z,0
2017-03-27T03:34:18.248Z,0
2017-03-27T03:34:58.670Z,0
2017-03-27T03:35:39.158Z,0
2017-03-27T03:36:19.596Z,0
2017-03-27T03:37:00.105Z,0
2017-03-27T03:37:40.584Z,0
2017-03-27T03:38:21.094Z,0
2017-03-27T03:39:01.617Z,0
2017-03-27T03:39:42.081Z,0
2017-03-27T03:40:22.563Z,0
2017-03-27T03:41:03.048Z,0
2017-03-27T03:41:43.497Z,0
2017-03-27T03:42:24.025Z,0
2017-03-27T03:43:04.577Z,0
2017-03-27T03:43:45.032Z,0
2017-03-27T03:44:25.518Z,0
2017-03-27T03:45:06.030Z,0
2017-03-27T03:45:46.526Z,0
2017-03-27T03:46:26.962Z,0
2017-03-27T03:47:07.425Z,0
2017-03-27T03:47:47.937Z,0
2017-03-27T03:48:28.422Z,0
2017-03-27T03:49:09.024Z,0
2017-03-27T03:49:49.430Z,0
2017-03-27T03:50:29.942Z,0
2017-03-27T03:51:10.476Z,0
2017-03-27T03:51:50.927Z,0
2017-03-27T03:52:31.446Z,0
2017-03-27T03:53:11.929Z,0
2017-03-27T03:53:52.439Z,0
2017-03-27T03:54:32.890Z,0
2017-03-27T03:55:13.429Z,0
2017-03-27T03:55:53.863Z,0
2017-03-27T03:56:34.353Z,0
2017-03-27T03:57:14.813Z,0
2017-03-27T03:57:55.335Z,0
2017-03-27T03:58:35.819Z,0
2017-03-27T03:59:16.268Z,0
2017-03-27T03:59:56.846Z,0
2017-03-27T04:00:37.367Z,0
2017-03-27T04:01:17.853Z,0
2017-03-27T04:01:58.294Z,0
2017-03-27T04:02:38.816Z,0
2017-03-27T04:03:19.367Z,0
2017-03-27T04:03:59.758Z,0
2017-03-27T04:04:40.300Z,0
2017-03-27T04:05:20.833Z,0
2017-03-27T04:06:01.257Z,0
2017-03-27T04:06:41.763Z,0
2017-03-27T04:07:22.355Z,0
2017-03-27T04:08:02.793Z,0
2017-03-27T04:08:43.292Z,0
2017-03-27T04:09:23.936Z,0
2017-03-27T04:10:04.428Z,0
2017-03-27T04:10:44.916Z,0
2017-03-27T04:11:25.429Z,0
2017-03-27T04:12:05.940Z,0
2017-03-27T04:12:46.432Z,0
2017-03-27T04:13:27.018Z,0
2017-03-27T04:14:07.418Z,0
2017-03-27T04:14:47.985Z,0
2017-03-27T04:15:28.536Z,0
2017-03-27T04:16:09.052Z,0
2017-03-27T04:16:49.550Z,0
2017-03-27T04:17:30.058Z,0
2017-03-27T04:18:10.536Z,0
2017-03-27T04:18:51.037Z,0
2017-03-27T04:19:31.566Z,0
2017-03-27T04:20:12.006Z,0
2017-03-27T04:20:52.439Z,0
2017-03-27T04:21:32.995Z,0
2017-03-27T04:22:13.461Z,0
2017-03-27T04:22:54.027Z,0
2017-03-27T04:23:34.432Z,0
2017-03-27T04:24:14.978Z,0
2017-03-27T04:24:55.529Z,0
2017-03-27T04:25:35.964Z,0
2017-03-27T04:26:16.498Z,0
2017-03-27T04:26:57.010Z,0
2017-03-27T04:27:37.476Z,0
2017-03-27T04:28:18.031Z,0
2017-03-27T04:28:58.461Z,0
2017-03-27T04:29:38.975Z,0
2017-03-27T04:30:19.547Z,0
2017-03-27T04:30:59.968Z,0
2017-03-27T04:31:40.440Z,0
2017-03-27T04:32:20.959Z,0
2017-03-27T04:33:01.417Z,0
2017-03-27T04:33:41.893Z,0
2017-03-27T04:34:22.382Z,0
2017-03-27T04:35:02.983Z,0
2017-03-27T04:35:43.411Z,0
2017-03-27T04:36:23.886Z,0
2017-03-27T04:37:04.394Z,0
2017-03-27T04:37:44.901Z,0
2017-03-27T04:38:25.376Z,0
2017-03-27T04:39:05.868Z,0
2017-03-27T04:39:46.427Z,0
2017-03-27T04:40:26.934Z,0
2017-03-27T04:41:07.416Z,0
2017-03-27T04:41:47.993Z,0
2017-03-27T04:42:28.487Z,4
2017-03-27T04:43:08.998Z,4
2017-03-27T04:43:49.549Z,0
2017-03-27T04:44:29.998Z,0
2017-03-27T04:45:10.451Z,4
2017-03-27T04:45:50.923Z,4
2017-03-27T04:46:31.479Z,0
2017-03-27T04:47:12.057Z,4
2017-03-27T04:47:52.470Z,0
2017-03-27T04:48:33.008Z,4
2017-03-27T04:49:13.461Z,4
2017-03-27T04:49:53.997Z,4
2017-03-27T04:50:34.504Z,4
2017-03-27T04:51:15.010Z,4
2017-03-27T04:51:55.531Z,8
2017-03-27T04:52:35.990Z,4
2017-03-27T04:53:16.563Z,8
2017-03-27T04:53:57.069Z,8
2017-03-27T04:54:37.596Z,8
2017-03-27T04:55:18.099Z,8
2017-03-27T04:55:58.589Z,12
2017-03-27T04:56:39.168Z,12
2017-03-27T04:57:19.586Z,16
2017-03-27T04:58:00.031Z,20
2017-03-27T04:58:40.585Z,20
2017-03-27T04:59:21.050Z,24
2017-03-27T05:00:01.551Z,24
2017-03-27T05:00:42.082Z,28
2017-03-27T05:01:22.541Z,32
2017-03-27T05:02:03.136Z,36
2017-03-27T05:02:43.552Z,36
2017-03-27T05:03:24.198Z,40
2017-03-27T05:04:04.706Z,44
2017-03-27T05:04:45.177Z,52
2017-03-27T05:05:25.641Z,52
2017-03-27T05:06:06.094Z,60
2017-03-27T05:06:46.620Z,64
2017-03-27T05:07:27.275Z,68
2017-03-27T05:08:07.743Z,72
2017-03-27T05:08:48.204Z,84
2017-03-27T05:09:28.915Z,88
2017-03-27T05:10:09.311Z,92
2017-03-27T05:10:49.791Z,100
2017-03-27T05:11:30.355Z,104
2017-03-27T05:12:10.894Z,108
2017-03-27T05:12:51.514Z,116
2017-03-27T05:13:32.085Z,124
2017-03-27T05:14:12.434Z,132
2017-03-27T05:14:53.258Z,140
2017-03-27T05:15:33.691Z,144
2017-03-27T05:16:14.197Z,152
2017-03-27T05:16:54.687Z,164
2017-03-27T05:17:35.143Z,172
2017-03-27T05:18:15.809Z,180
2017-03-27T05:18:56.239Z,196
2017-03-27T05:19:36.721Z,204
2017-03-27T05:20:17.209Z,212
2017-03-27T05:20:57.703Z,224
2017-03-27T05:21:38.203Z,236
2017-03-27T05:22:18.715Z,248
2017-03-27T05:22:59.202Z,260
2017-03-27T05:23:39.707Z,272
2017-03-27T05:24:20.264Z,288
2017-03-27T05:25:00.878Z,300
2017-03-27T05:25:41.381Z,312
2017-03-27T05:26:21.854Z,328
2017-03-27T05:27:02.391Z,336
2017-03-27T05:27:42.809Z,352
2017-03-27T05:28:23.355Z,364
2017-03-27T05:29:03.891Z,376
2017-03-27T05:29:44.389Z,396
2017-03-27T05:30:27.342Z,408
2017-03-27T05:31:07.556Z,420
2017-03-27T05:31:48.051Z,436
2017-03-27T05:32:28.510Z,448
2017-03-27T05:33:08.974Z,460
2017-03-27T05:33:49.429Z,476
2017-03-27T05:34:30.068Z,492
2017-03-27T05:35:10.421Z,508
2017-03-27T05:35:50.965Z,528
2017-03-27T05:36:31.423Z,544
2017-03-27T05:37:11.903Z,552
2017-03-27T05:37:52.375Z,564
2017-03-27T05:38:32.921Z,572
2017-03-27T05:39:13.405Z,584
2017-03-27T05:39:56.516Z,608
2017-03-27T05:40:36.987Z,628
2017-03-27T05:41:17.615Z,652
2017-03-27T05:41:58.031Z,668
2017-03-27T05:42:38.555Z,680
2017-03-27T05:43:19.302Z,688
2017-03-27T05:43:59.765Z,696
2017-03-27T05:44:40.269Z,716
2017-03-27T05:45:20.741Z,732
2017-03-27T05:46:01.218Z,748
2017-03-27T05:46:41.685Z,768
2017-03-27T05:47:22.690Z,792
2017-03-27T05:48:04.135Z,812
2017-03-27T05:48:44.700Z,832
2017-03-27T05:49:25.325Z,844
2017-03-27T05:50:05.848Z,860
2017-03-27T05:50:46.296Z,872
2017-03-27T05:51:26.816Z,880
2017-03-27T05:52:07.297Z,896
2017-03-27T05:52:47.828Z,904
2017-03-27T05:53:28.279Z,920
2017-03-27T05:54:08.815Z,936
2017-03-27T05:54:49.257Z,940
2017-03-27T05:55:29.812Z,960
2017-03-27T05:56:10.301Z,972
2017-03-27T05:56:50.813Z,992
2017-03-27T05:57:31.307Z,1008
2017-03-27T05:58:11.819Z,1024
2017-03-27T05:58:52.470Z,1036
2017-03-27T05:59:32.773Z,1044
2017-03-27T06:00:13.323Z,1056
2017-03-27T06:00:53.835Z,1068
2017-03-27T06:01:34.317Z,1076
2017-03-27T06:02:14.816Z,1084
2017-03-27T06:02:55.362Z,1092
2017-03-27T06:03:35.830Z,1100
2017-03-27T06:04:16.311Z,1100
2017-03-27T06:04:57.908Z,1108
2017-03-27T06:05:38.322Z,1116
2017-03-27T06:06:18.746Z,1128
2017-03-27T06:06:59.257Z,1144
2017-03-27T06:07:39.775Z,1156
2017-03-27T06:08:20.970Z,1168
2017-03-27T06:09:01.487Z,1172
2017-03-27T06:09:41.961Z,1176
2017-03-27T06:10:22.528Z,1176
2017-03-27T06:11:02.993Z,1176
2017-03-27T06:11:43.467Z,1180
2017-03-27T06:12:23.963Z,1184
2017-03-27T06:13:04.482Z,1188
2017-03-27T06:13:44.911Z,1192
2017-03-27T06:14:25.419Z,1200
2017-03-27T06:15:05.906Z,1200
2017-03-27T06:15:46.405Z,1208
2017-03-27T06:16:26.891Z,1208
2017-03-27T06:17:07.445Z,1212
2017-03-27T06:17:47.934Z,1212
2017-03-27T06:18:28.451Z,1220
2017-03-27T06:19:09.051Z,1228
2017-03-27T06:21:47.857Z,1252
2017-03-27T06:25:06.123Z,1252
2017-03-27T06:25:46.621Z,1256
2017-03-27T06:26:27.209Z,1252
2017-03-27T06:27:07.685Z,1248
2017-03-27T06:27:48.211Z,1240
2017-03-27T06:28:28.674Z,1236
2017-03-27T06:29:09.156Z,1240
2017-03-27T06:29:49.842Z,1244
2017-03-27T06:30:30.453Z,1244
2017-03-27T06:31:11.191Z,1248
2017-03-27T06:31:51.771Z,1252
2017-03-27T06:32:32.278Z,1264
2017-03-27T06:33:12.896Z,1264
2017-03-27T06:33:53.352Z,1268
2017-03-27T06:34:33.770Z,1272
2017-03-27T06:35:14.325Z,1276
2017-03-27T06:35:54.811Z,1284
2017-03-27T06:36:35.607Z,1284
2017-03-27T06:37:16.096Z,1288
2017-03-27T06:37:56.622Z,1276
2017-03-27T06:38:37.243Z,1292
2017-03-27T06:39:18.074Z,1284
2017-03-27T06:39:58.468Z,1288
2017-03-27T06:40:39.084Z,1292
2017-03-27T06:41:19.500Z,1300
2017-03-27T06:42:00.021Z,1300
2017-03-27T06:42:40.612Z,1300
2017-03-27T06:43:21.188Z,1300
2017-03-27T06:44:01.600Z,1300
2017-03-27T06:44:42.114Z,1296
2017-03-27T06:45:22.800Z,1300
2017-03-27T06:46:03.297Z,1304
2017-03-27T06:46:43.975Z,1308
2017-03-27T06:47:24.432Z,1320
2017-03-27T06:48:05.006Z,1312
2017-03-27T06:48:45.495Z,1316
2017-03-27T06:49:26.007Z,1316
2017-03-27T06:50:06.604Z,1316
2017-03-27T06:50:47.141Z,1312
2017-03-27T06:51:27.594Z,1308
2017-03-27T06:52:08.112Z,1312
2017-03-27T06:52:48.766Z,1296
2017-03-27T06:53:29.524Z,1304
2017-03-27T06:54:10.326Z,1308
2017-03-27T06:54:51.014Z,1304
2017-03-27T06:55:31.450Z,1312
2017-03-27T06:56:11.908Z,1316
2017-03-27T06:56:52.462Z,1328
2017-03-27T06:57:32.939Z,1348
2017-03-27T06:58:13.473Z,1368
2017-03-27T06:58:53.915Z,1368
2017-03-27T06:59:34.412Z,1372
2017-03-27T07:00:14.930Z,1360
2017-03-27T07:00:55.593Z,1356
2017-03-27T07:01:36.377Z,1360
2017-03-27T07:02:20.109Z,1356
2017-03-27T07:03:00.806Z,1356
2017-03-27T07:03:41.502Z,1364
2017-03-27T07:04:21.799Z,1412
2017-03-27T07:05:02.444Z,1552
2017-03-27T07:05:43.165Z,1764
2017-03-27T07:06:23.551Z,1980
2017-03-27T07:07:04.418Z,2228
2017-03-27T07:07:44.953Z,2404
2017-03-27T07:08:25.574Z,2464
2017-03-27T07:09:06.074Z,2496
2017-03-27T07:09:46.585Z,2504
2017-03-27T07:10:27.106Z,2444
2017-03-27T07:11:07.773Z,2484
2017-03-27T07:11:48.235Z,2484
2017-03-27T07:12:28.574Z,2496
2017-03-27T07:13:09.136Z,2484
2017-03-27T07:13:50.235Z,2480
2017-03-27T07:14:31.036Z,2496
2017-03-27T07:15:11.528Z,2488
2017-03-27T07:15:51.947Z,2492
2017-03-27T07:16:32.495Z,2488
2017-03-27T07:17:12.937Z,2480
2017-03-27T07:17:53.494Z,2460
2017-03-27T07:18:33.937Z,2472
2017-03-27T07:19:14.521Z,2452
2017-03-27T07:19:54.930Z,2432
2017-03-27T07:20:35.500Z,2404
2017-03-27T07:21:15.977Z,2392
2017-03-27T07:21:56.426Z,2380
2017-03-27T07:22:36.925Z,2376
2017-03-27T07:23:17.451Z,2360
2017-03-27T07:23:57.916Z,2348
2017-03-27T07:24:38.390Z,2336
2017-03-27T07:25:19.240Z,2320
2017-03-27T07:25:59.808Z,2308
2017-03-27T07:26:40.243Z,2296
2017-03-27T07:27:20.736Z,2276
2017-03-27T07:28:01.245Z,2268
2017-03-27T07:28:41.792Z,2252
2017-03-27T07:29:22.350Z,2240
2017-03-27T07:30:03.028Z,2232
2017-03-27T07:30:43.385Z,2204
2017-03-27T07:31:23.945Z,2208
2017-03-27T07:32:04.417Z,2200
2017-03-27T07:32:45.091Z,2192
2017-03-27T07:33:25.529Z,2192
2017-03-27T07:34:06.056Z,2188
2017-03-27T07:34:46.555Z,2196
2017-03-27T07:35:27.035Z,2196
2017-03-27T07:36:07.692Z,2196
2017-03-27T07:36:48.257Z,2188
2017-03-27T07:37:28.969Z,2172
2017-03-27T07:38:09.462Z,2156
2017-03-27T07:38:50.039Z,2156
2017-03-27T07:39:30.502Z,2144
2017-03-27T07:40:11.069Z,2132
2017-03-27T07:40:51.494Z,2116
2017-03-27T07:41:31.977Z,2112
2017-03-27T07:42:12.472Z,2084
2017-03-27T07:42:52.961Z,2056
2017-03-27T07:43:33.508Z,1996
2017-03-27T07:44:13.995Z,1912
2017-03-27T07:44:54.437Z,1848
2017-03-27T07:45:34.917Z,1804
2017-03-27T07:46:15.394Z,1792
2017-03-27T07:46:55.866Z,1788
2017-03-27T07:47:36.429Z,1788
2017-03-27T07:48:16.926Z,1780
2017-03-27T07:48:57.449Z,1780
2017-03-27T07:49:37.842Z,1784
2017-03-27T07:50:18.678Z,1780
2017-03-27T07:50:59.182Z,1768
2017-03-27T07:51:39.835Z,1760
2017-03-27T07:52:20.345Z,1748
2017-03-27T07:53:00.822Z,1740
2017-03-27T07:53:41.284Z,1728
2017-03-27T07:54:22.441Z,1712
2017-03-27T07:55:02.536Z,1704
2017-03-27T07:55:43.005Z,1696
2017-03-27T07:56:23.437Z,1680
2017-03-27T07:57:03.939Z,1672
2017-03-27T07:57:44.496Z,1656
2017-03-27T07:58:25.130Z,1644
2017-03-27T07:59:05.537Z,1636
2017-03-27T07:59:46.005Z,1624
2017-03-27T08:00:26.531Z,1616
2017-03-27T08:01:07.113Z,1612
2017-03-27T08:01:47.519Z,1604
2017-03-27T08:02:28.139Z,1616
2017-03-27T08:03:08.695Z,1588
2017-03-27T08:03:49.179Z,1580
2017-03-27T08:04:29.645Z,1580
2017-03-27T08:05:10.237Z,1576
2017-03-27T08:05:50.737Z,1576
2017-03-27T08:06:31.224Z,1576
2017-03-27T08:07:11.656Z,1572
2017-03-27T08:07:52.235Z,1572
2017-03-27T08:08:32.701Z,1568
2017-03-27T08:09:13.296Z,1564
2017-03-27T08:09:53.751Z,1572
2017-03-27T08:10:34.178Z,1568
2017-03-27T08:11:14.652Z,1556
2017-03-27T08:11:55.203Z,1556
2017-03-27T08:12:35.829Z,1560
2017-03-27T08:13:16.349Z,1556
2017-03-27T08:13:56.832Z,1564
2017-03-27T08:14:37.282Z,1560
2017-03-27T08:15:17.782Z,1560
2017-03-27T08:15:58.510Z,1552
2017-03-27T08:16:39.039Z,1548
2017-03-27T08:17:19.607Z,1552
2017-03-27T08:18:00.147Z,1556
2017-03-27T08:18:40.776Z,1552
2017-03-27T08:19:21.185Z,1548
2017-03-27T08:20:01.643Z,1552
2017-03-27T08:20:42.135Z,1552
2017-03-27T08:21:22.626Z,1564
2017-03-27T08:22:03.031Z,1552
2017-03-27T08:22:43.555Z,1556
2017-03-27T08:23:24.215Z,1552
2017-03-27T08:24:04.695Z,1560
2017-03-27T08:24:45.327Z,1564
2017-03-27T08:25:25.811Z,1564
2017-03-27T08:26:06.370Z,1568
2017-03-27T08:26:46.709Z,1564
2017-03-27T08:27:28.263Z,1572
2017-03-27T08:30:36.175Z,1584
2017-03-27T08:31:14.696Z,1576
2017-03-27T08:31:55.182Z,1580
2017-03-27T08:32:35.701Z,1576
2017-03-27T08:33:16.156Z,1576
2017-03-27T08:33:56.857Z,1580
2017-03-27T08:34:38.487Z,1576
2017-03-27T08:35:18.980Z,1572
2017-03-27T08:35:59.521Z,1572
2017-03-27T08:36:39.996Z,1572
2017-03-27T08:37:20.503Z,1576
2017-03-27T08:38:00.950Z,1572
2017-03-27T08:38:41.491Z,1576
2017-03-27T08:39:21.949Z,1568
2017-03-27T08:40:02.398Z,1580
2017-03-27T08:40:42.900Z,1580
2017-03-27T08:41:23.384Z,1580
2017-03-27T08:42:03.944Z,1584
2017-03-27T08:42:44.491Z,1584
2017-03-27T08:43:25.058Z,1584
2017-03-27T08:44:05.553Z,1592
2017-03-27T08:44:46.063Z,1580
2017-03-27T08:45:26.624Z,1576
2017-03-27T08:46:07.125Z,1564
2017-03-27T08:46:47.628Z,1556
2017-03-27T08:47:28.122Z,1540
2017-03-27T08:48:08.739Z,1528
2017-03-27T08:48:49.210Z,1508
2017-03-27T08:51:22.332Z,1480
2017-03-27T08:52:02.367Z,1472
2017-03-27T08:52:42.839Z,1460
2017-03-27T08:53:23.315Z,1456
2017-03-27T08:54:03.875Z,1448
2017-03-27T08:54:44.531Z,1432
2017-03-27T08:55:25.088Z,1432
2017-03-27T08:56:05.597Z,1436
2017-03-27T08:56:46.213Z,1424
2017-03-27T08:57:26.669Z,1424
2017-03-27T08:58:07.194Z,1424
2017-03-27T08:58:47.627Z,1424
2017-03-27T08:59:28.141Z,1408
2017-03-27T09:00:08.686Z,1416
2017-03-27T09:00:49.085Z,1408
2017-03-27T09:01:29.635Z,1412
2017-03-27T09:02:10.157Z,1412
2017-03-27T09:02:50.696Z,1408
2017-03-27T09:03:31.226Z,1408
2017-03-27T09:04:11.669Z,1408
2017-03-27T09:04:52.236Z,1404
2017-03-27T09:05:32.695Z,1408
2017-03-27T09:06:13.188Z,1400
2017-03-27T09:06:53.842Z,1388
2017-03-27T09:07:34.348Z,1388
2017-03-27T09:08:14.791Z,1380
2017-03-27T09:08:55.437Z,1376
2017-03-27T09:09:35.981Z,1380
2017-03-27T09:10:16.517Z,1372
2017-03-27T09:10:57.022Z,1376
2017-03-27T09:11:37.620Z,1372
2017-03-27T09:12:18.205Z,1372
2017-03-27T09:12:58.621Z,1368
2017-03-27T09:13:39.124Z,1364
2017-03-27T09:14:19.666Z,1360
2017-03-27T09:15:00.322Z,1356
2017-03-27T09:15:40.887Z,1340
2017-03-27T09:16:21.432Z,1352
2017-03-27T09:17:01.963Z,1352
2017-03-27T09:17:42.401Z,1344
2017-03-27T09:18:22.938Z,1340
2017-03-27T09:19:03.353Z,1344
2017-03-27T09:19:43.853Z,1348
2017-03-27T09:20:24.328Z,1340
2017-03-27T09:21:04.856Z,1344
2017-03-27T09:21:45.319Z,1348
2017-03-27T09:22:25.827Z,1340
2017-03-27T09:23:06.401Z,1344
2017-03-27T09:23:46.909Z,1340
2017-03-27T09:24:27.459Z,1340
2017-03-27T09:25:07.851Z,1340
2017-03-27T09:25:48.410Z,1332
2017-03-27T09:26:28.872Z,1340
2017-03-27T09:27:09.334Z,1348
2017-03-27T09:27:49.818Z,1348
2017-03-27T09:28:30.297Z,1356
2017-03-27T09:29:10.814Z,1352
2017-03-27T09:29:51.341Z,1348
2017-03-27T09:30:31.918Z,1360
2017-03-27T09:31:12.418Z,1352
2017-03-27T09:31:52.964Z,1356
2017-03-27T09:32:33.463Z,1360
2017-03-27T09:33:13.943Z,1356
2017-03-27T09:33:54.485Z,1356
2017-03-27T09:34:35.086Z,1356
2017-03-27T09:35:15.595Z,1360
2017-03-27T09:35:56.077Z,1368
2017-03-27T09:36:36.546Z,1368
2017-03-27T09:37:17.132Z,1364
2017-03-27T09:37:57.767Z,1368
2017-03-27T09:38:38.435Z,1364
2017-03-27T09:39:18.745Z,1364
2017-03-27T09:39:59.303Z,1364
2017-03-27T09:40:39.722Z,1368
2017-03-27T09:41:20.325Z,1372
2017-03-27T09:42:00.822Z,1372
2017-03-27T09:42:41.324Z,1368
2017-03-27T09:43:21.761Z,1372
2017-03-27T09:44:02.306Z,1380
2017-03-27T09:44:42.919Z,1372
2017-03-27T09:45:23.333Z,1380
2017-03-27T09:46:03.841Z,1376
2017-03-27T09:46:44.330Z,1380
2017-03-27T09:47:25.095Z,1376
2017-03-27T09:48:05.550Z,1376
2017-03-27T09:48:46.004Z,1384
2017-03-27T09:49:26.507Z,1376
2017-03-27T09:50:06.970Z,1380
2017-03-27T09:50:47.628Z,1372
2017-03-27T09:51:28.115Z,1388
2017-03-27T09:52:08.617Z,1392